Time;durP1;ratioP1;P1;durP2;ratioP2;P2;SDS_P1;SDS_P2;PMS_P1;PMS_P2;Temp;Humidity;BMP_temperature;BMP_pressure;BME280_temperature;BME280_humidity;BME280_pressure;Samples;Min_cycle;Max_cycle;Signal;HPM_P1;HPM_P2
2023/12/12 00:02:01;;;;;;;9.57;3.27;;;;;;;;;;4976106;28;20202;-49
2023/12/12 00:04:27;;;;;;;6.50;3.10;;;;;;;;;;4976055;28;20221;-49
2023/12/12 00:06:53;;;;;;;6.60;2.80;;;;;;;;;;4976153;28;20206;-49
2023/12/12 00:09:19;;;;;;;8.07;3.50;;;;;;;;;;4975592;28;20206;-49
2023/12/12 00:11:45;;;;;;;7.57;3.47;;;;;;;;;;4975682;28;20203;-49
2023/12/12 00:14:12;;;;;;;8.27;3.43;;;;;;;;;;4975954;28;20199;-49
2023/12/12 00:16:38;;;;;;;6.43;2.80;;;;;;;;;;4975712;28;20210;-50
2023/12/12 00:19:04;;;;;;;8.30;3.37;;;;;;;;;;4975756;28;20223;-50
2023/12/12 00:21:30;;;;;;;7.03;2.90;;;;;;;;;;4975659;28;20202;-49
2023/12/12 00:23:56;;;;;;;4.80;3.07;;;;;;;;;;4975880;28;20310;-50
2023/12/12 00:26:22;;;;;;;6.00;3.00;;;;;;;;;;4975517;28;20226;-49
2023/12/12 00:28:48;;;;;;;8.23;3.10;;;;;;;;;;4975392;28;20213;-50
2023/12/12 00:31:15;;;;;;;6.03;2.90;;;;;;;;;;4975519;28;20286;-50
2023/12/12 00:33:41;;;;;;;7.37;3.77;;;;;;;;;;4975621;28;20203;-49
2023/12/12 00:36:07;;;;;;;7.27;3.40;;;;;;;;;;4975542;28;20206;-49
2023/12/12 00:38:33;;;;;;;6.57;3.27;;;;;;;;;;4975110;28;20282;-50
2023/12/12 00:40:59;;;;;;;4.77;3.13;;;;;;;;;;4975294;28;20606;-50
2023/12/12 00:43:25;;;;;;;6.50;3.17;;;;;;;;;;4975520;28;20214;-50
2023/12/12 00:45:51;;;;;;;7.00;3.40;;;;;;;;;;4975167;28;20265;-50
2023/12/12 00:48:19;;;;;;;6.47;3.70;;;;;;;;;;4975190;28;20202;-49
2023/12/12 00:50:45;;;;;;;8.00;3.67;;;;;;;;;;4974940;28;20203;-50
2023/12/12 00:53:11;;;;;;;5.53;3.30;;;;;;;;;;4975240;28;20246;-50
2023/12/12 00:55:37;;;;;;;9.27;3.93;;;;;;;;;;4974928;28;20199;-49
2023/12/12 00:58:03;;;;;;;6.47;3.50;;;;;;;;;;4974758;28;20262;-49
2023/12/12 01:00:29;;;;;;;4.43;3.13;;;;;;;;;;4974893;28;20249;-50
2023/12/12 01:02:55;;;;;;;6.87;2.77;;;;;;;;;;4974950;28;20202;-50
2023/12/12 01:05:22;;;;;;;5.57;2.63;;;;;;;;;;4975162;28;20203;-50
2023/12/12 01:07:48;;;;;;;7.80;3.07;;;;;;;;;;4974653;28;20206;-50
2023/12/12 01:10:14;;;;;;;4.43;2.87;;;;;;;;;;4974947;28;20198;-50
2023/12/12 01:12:40;;;;;;;7.30;3.17;;;;;;;;;;4974992;28;20258;-49
2023/12/12 01:15:07;;;;;;;5.50;2.90;;;;;;;;;;4974511;28;20203;-49
2023/12/12 01:17:33;;;;;;;4.93;2.77;;;;;;;;;;4974479;28;20223;-50
2023/12/12 01:19:59;;;;;;;5.63;3.07;;;;;;;;;;4972907;28;20210;-48
2023/12/12 01:22:26;;;;;;;5.80;3.03;;;;;;;;;;4973086;28;20572;-49
2023/12/12 01:24:52;;;;;;;6.53;3.00;;;;;;;;;;4974776;28;20203;-48
2023/12/12 01:27:18;;;;;;;6.30;3.17;;;;;;;;;;4974587;28;20235;-48
2023/12/12 01:29:44;;;;;;;7.53;2.97;;;;;;;;;;4974451;28;20225;-49
2023/12/12 01:32:10;;;;;;;6.13;3.17;;;;;;;;;;4974768;28;20669;-49
2023/12/12 01:34:36;;;;;;;6.53;3.10;;;;;;;;;;4974390;28;20206;-49
2023/12/12 01:37:02;;;;;;;7.87;2.80;;;;;;;;;;4974267;28;20203;-48
2023/12/12 01:39:29;;;;;;;5.37;3.10;;;;;;;;;;4974355;28;20582;-48
2023/12/12 01:41:55;;;;;;;5.87;3.30;;;;;;;;;;4974343;28;20207;-48
2023/12/12 01:44:21;;;;;;;7.60;3.20;;;;;;;;;;4974261;28;20209;-49
2023/12/12 01:46:48;;;;;;;8.20;3.13;;;;;;;;;;4974144;28;20219;-48
2023/12/12 01:49:16;;;;;;;5.60;3.50;;;;;;;;;;4974615;28;20238;-48
2023/12/12 01:51:43;;;;;;;6.57;3.50;;;;;;;;;;4974306;28;20203;-48
2023/12/12 01:54:09;;;;;;;8.20;3.77;;;;;;;;;;4974219;28;20661;-48
2023/12/12 01:56:36;;;;;;;5.83;3.60;;;;;;;;;;4974176;28;20194;-48
2023/12/12 01:59:02;;;;;;;6.40;3.13;;;;;;;;;;4974042;28;20235;-48
2023/12/12 02:01:29;;;;;;;6.37;3.80;;;;;;;;;;4973978;28;20203;-48
2023/12/12 02:03:55;;;;;;;7.43;3.17;;;;;;;;;;4974204;28;20195;-47
2023/12/12 02:06:22;;;;;;;7.43;3.50;;;;;;;;;;4973940;28;20203;-48
2023/12/12 02:08:49;;;;;;;6.77;3.47;;;;;;;;;;4973746;28;20230;-48
2023/12/12 02:11:15;;;;;;;7.37;3.90;;;;;;;;;;4973216;28;20207;-48
2023/12/12 02:13:42;;;;;;;8.33;3.73;;;;;;;;;;4973879;28;20257;-48
2023/12/12 02:16:09;;;;;;;6.67;3.57;;;;;;;;;;4973780;28;20203;-48
2023/12/12 02:18:35;;;;;;;9.33;4.00;;;;;;;;;;4973610;28;20697;-48
2023/12/12 02:21:01;;;;;;;9.50;4.13;;;;;;;;;;4973730;28;20505;-48
2023/12/12 02:23:29;;;;;;;11.07;4.30;;;;;;;;;;4973604;28;20273;-48
2023/12/12 02:25:55;;;;;;;8.77;4.70;;;;;;;;;;4973793;28;20206;-48
2023/12/12 02:28:21;;;;;;;8.00;4.00;;;;;;;;;;4973379;28;20281;-48
2023/12/12 02:30:47;;;;;;;8.03;4.17;;;;;;;;;;4973339;28;20202;-48
2023/12/12 02:33:13;;;;;;;10.13;3.93;;;;;;;;;;4973482;28;20724;-48
2023/12/12 02:35:39;;;;;;;6.00;3.40;;;;;;;;;;4973480;28;20206;-48
2023/12/12 02:38:05;;;;;;;6.87;3.53;;;;;;;;;;4973376;28;20226;-48
2023/12/12 02:40:33;;;;;;;10.63;3.43;;;;;;;;;;4973186;28;20242;-47
2023/12/12 02:42:59;;;;;;;6.37;3.47;;;;;;;;;;4973441;28;20199;-48
2023/12/12 02:45:25;;;;;;;5.67;4.00;;;;;;;;;;4973337;28;20804;-47
2023/12/12 02:47:51;;;;;;;10.50;4.13;;;;;;;;;;4973043;28;21004;-48
2023/12/12 02:50:17;;;;;;;6.83;4.10;;;;;;;;;;4973054;28;20504;-48
2023/12/12 02:52:43;;;;;;;5.83;3.30;;;;;;;;;;4973087;28;20665;-48
2023/12/12 02:55:09;;;;;;;6.30;3.80;;;;;;;;;;4973253;28;20267;-48
2023/12/12 02:57:36;;;;;;;9.03;3.87;;;;;;;;;;4972917;28;20214;-48
2023/12/12 03:00:03;;;;;;;8.57;3.67;;;;;;;;;;4972988;28;20203;-48
2023/12/12 03:02:30;;;;;;;10.40;4.20;;;;;;;;;;4973010;28;20230;-47
2023/12/12 03:04:57;;;;;;;6.70;3.93;;;;;;;;;;4973317;28;20206;-47
2023/12/12 03:07:23;;;;;;;6.73;3.70;;;;;;;;;;4972943;28;20564;-48
2023/12/12 03:09:49;;;;;;;7.30;4.67;;;;;;;;;;4972855;28;20254;-48
2023/12/12 03:12:15;;;;;;;7.40;4.53;;;;;;;;;;4972870;28;20534;-48
2023/12/12 03:14:43;;;;;;;6.70;4.30;;;;;;;;;;4972855;28;20647;-48
2023/12/12 03:17:08;;;;;;;7.30;3.97;;;;;;;;;;4972926;28;20207;-48
2023/12/12 03:19:35;;;;;;;9.07;4.90;;;;;;;;;;4972682;28;20694;-47
2023/12/12 03:22:01;;;;;;;7.53;4.07;;;;;;;;;;4972973;28;20230;-47
2023/12/12 03:24:27;;;;;;;5.70;4.00;;;;;;;;;;4972858;28;20555;-47
2023/12/12 03:26:53;;;;;;;7.37;4.33;;;;;;;;;;4972395;28;20231;-48
2023/12/12 03:29:19;;;;;;;7.80;4.00;;;;;;;;;;4972597;28;20675;-48
2023/12/12 03:31:46;;;;;;;7.07;3.73;;;;;;;;;;4972537;28;20195;-47
2023/12/12 03:34:12;;;;;;;5.60;3.53;;;;;;;;;;4972700;28;20195;-48
2023/12/12 03:36:41;;;;;;;5.43;3.83;;;;;;;;;;4972524;28;20250;-48
2023/12/12 03:39:07;;;;;;;6.53;4.00;;;;;;;;;;4972543;28;20223;-47
2023/12/12 03:41:33;;;;;;;8.80;3.67;;;;;;;;;;4972518;28;20202;-48
2023/12/12 03:43:59;;;;;;;8.70;4.20;;;;;;;;;;4972452;28;20199;-48
2023/12/12 03:46:25;;;;;;;10.60;4.07;;;;;;;;;;4972631;28;20593;-48
2023/12/12 03:48:52;;;;;;;6.53;4.00;;;;;;;;;;4972368;28;20207;-47
2023/12/12 03:51:18;;;;;;;13.63;4.77;;;;;;;;;;4972325;28;20574;-47
2023/12/12 03:53:44;;;;;;;9.00;4.30;;;;;;;;;;4972457;28;20205;-47
2023/12/12 03:56:10;;;;;;;9.07;4.50;;;;;;;;;;4972551;28;20202;-47
2023/12/12 03:58:36;;;;;;;11.50;4.53;;;;;;;;;;4972231;28;20881;-47
2023/12/12 04:01:02;;;;;;;8.93;5.30;;;;;;;;;;4972311;28;20206;-47
2023/12/12 04:03:28;;;;;;;5.80;4.47;;;;;;;;;;4972331;28;20194;-47
2023/12/12 04:05:55;;;;;;;7.53;5.13;;;;;;;;;;4972398;28;20488;-47
2023/12/12 04:08:21;;;;;;;11.67;4.37;;;;;;;;;;4972367;28;20447;-47
2023/12/12 04:10:48;;;;;;;6.90;4.80;;;;;;;;;;4972201;28;20438;-47
2023/12/12 04:13:13;;;;;;;7.77;4.50;;;;;;;;;;4972330;28;20449;-47
2023/12/12 04:15:40;;;;;;;10.47;4.90;;;;;;;;;;4972271;28;20820;-47
2023/12/12 04:18:06;;;;;;;6.90;4.30;;;;;;;;;;4972226;28;20351;-47
2023/12/12 04:20:32;;;;;;;8.60;5.00;;;;;;;;;;4972205;28;20438;-47
2023/12/12 04:22:59;;;;;;;7.40;4.90;;;;;;;;;;4972222;28;20462;-47
2023/12/12 04:25:25;;;;;;;8.30;4.63;;;;;;;;;;4972412;28;20199;-47
2023/12/12 04:27:51;;;;;;;8.67;3.87;;;;;;;;;;4971864;28;20466;-47
2023/12/12 04:30:17;;;;;;;6.13;4.10;;;;;;;;;;4972151;28;20205;-47
2023/12/12 04:32:43;;;;;;;7.07;3.80;;;;;;;;;;4972075;28;20477;-47
2023/12/12 04:35:11;;;;;;;5.57;3.70;;;;;;;;;;4975629;28;20464;-47
2023/12/12 04:37:37;;;;;;;7.03;4.10;;;;;;;;;;4975494;28;20513;-47
2023/12/12 04:40:05;;;;;;;6.17;4.47;;;;;;;;;;4975512;28;20505;-48
2023/12/12 04:42:31;;;;;;;10.57;4.20;;;;;;;;;;4975467;28;20497;-47
2023/12/12 04:44:57;;;;;;;5.73;4.20;;;;;;;;;;4975417;28;20446;-48
2023/12/12 04:47:23;;;;;;;8.60;4.30;;;;;;;;;;4975477;28;20534;-48
2023/12/12 04:49:49;;;;;;;5.33;3.90;;;;;;;;;;4975292;28;20201;-48
2023/12/12 04:52:15;;;;;;;6.27;4.13;;;;;;;;;;4975275;28;20529;-48
2023/12/12 04:54:41;;;;;;;7.43;4.03;;;;;;;;;;4975372;28;20438;-48
2023/12/12 04:57:09;;;;;;;5.90;4.50;;;;;;;;;;4975358;28;20450;-47
2023/12/12 04:59:35;;;;;;;7.93;4.13;;;;;;;;;;4974983;28;20250;-48
2023/12/12 05:02:01;;;;;;;6.30;4.43;;;;;;;;;;4975157;28;20194;-48
2023/12/12 05:04:27;;;;;;;6.27;4.20;;;;;;;;;;4975275;28;20207;-48
2023/12/12 05:06:53;;;;;;;7.10;4.27;;;;;;;;;;4975011;28;20199;-48
2023/12/12 05:09:19;;;;;;;8.27;3.83;;;;;;;;;;4975025;28;20671;-48
2023/12/12 05:11:45;;;;;;;8.50;4.27;;;;;;;;;;4974867;28;20443;-48
2023/12/12 05:14:14;;;;;;;5.20;3.77;;;;;;;;;;4974906;28;20616;-48
2023/12/12 05:16:40;;;;;;;6.00;4.00;;;;;;;;;;4974833;28;20538;-48
2023/12/12 05:19:06;;;;;;;9.87;4.57;;;;;;;;;;4974747;28;20485;-47
2023/12/12 05:21:32;;;;;;;9.97;5.00;;;;;;;;;;4974820;28;20434;-47
2023/12/12 05:23:58;;;;;;;9.87;4.77;;;;;;;;;;4969724;28;20568;-47
2023/12/12 05:26:24;;;;;;;8.37;5.23;;;;;;;;;;4962572;28;20435;-48
2023/12/12 05:28:50;;;;;;;8.80;5.40;;;;;;;;;;4966239;28;20770;-48
2023/12/12 05:31:17;;;;;;;12.37;5.57;;;;;;;;;;4962986;28;20207;-48
2023/12/12 05:33:43;;;;;;;11.90;5.33;;;;;;;;;;4962683;28;20203;-48
2023/12/12 05:36:10;;;;;;;10.33;6.10;;;;;;;;;;4964649;28;20628;-47
2023/12/12 05:38:35;;;;;;;11.27;5.80;;;;;;;;;;4962449;28;20577;-47
2023/12/12 05:41:01;;;;;;;10.87;5.73;;;;;;;;;;4962419;28;20976;-47
2023/12/12 05:43:27;;;;;;;11.47;5.87;;;;;;;;;;4964301;28;20206;-47
2023/12/12 05:45:54;;;;;;;8.63;5.40;;;;;;;;;;4959484;28;20622;-47
2023/12/12 05:48:22;;;;;;;11.17;5.63;;;;;;;;;;4962347;28;20565;-47
2023/12/12 05:50:48;;;;;;;8.17;5.83;;;;;;;;;;4965594;28;20446;-48
2023/12/12 05:53:14;;;;;;;8.87;5.60;;;;;;;;;;4960599;28;20776;-47
2023/12/12 05:55:40;;;;;;;10.77;6.47;;;;;;;;;;4962369;28;20446;-47
2023/12/12 05:58:06;;;;;;;10.63;5.90;;;;;;;;;;4960365;28;20502;-47
2023/12/12 06:00:32;;;;;;;7.27;4.90;;;;;;;;;;4962049;28;20442;-47
2023/12/12 06:02:58;;;;;;;9.13;5.63;;;;;;;;;;4960359;28;20191;-47
2023/12/12 06:05:25;;;;;;;8.80;5.30;;;;;;;;;;4962202;28;20442;-47
2023/12/12 06:07:52;;;;;;;12.70;5.20;;;;;;;;;;4963589;28;20191;-48
2023/12/12 06:10:19;;;;;;;11.00;4.90;;;;;;;;;;4961951;28;20991;-48
2023/12/12 06:12:45;;;;;;;9.63;5.67;;;;;;;;;;4961915;28;20438;-47
2023/12/12 06:15:11;;;;;;;7.47;5.33;;;;;;;;;;4963576;28;21027;-47
2023/12/12 06:17:37;;;;;;;6.57;5.00;;;;;;;;;;4961467;28;20504;-47
2023/12/12 06:20:03;;;;;;;6.10;4.73;;;;;;;;;;4961554;28;21051;-47
2023/12/12 06:22:30;;;;;;;10.60;5.17;;;;;;;;;;4963751;28;20254;-47
2023/12/12 06:24:56;;;;;;;8.67;5.43;;;;;;;;;;4959556;28;20921;-47
2023/12/12 06:27:22;;;;;;;10.27;4.80;;;;;;;;;;4961629;28;20486;-47
2023/12/12 06:29:49;;;;;;;8.60;5.40;;;;;;;;;;4963011;28;20820;-47
2023/12/12 06:32:16;;;;;;;7.23;4.70;;;;;;;;;;4961464;28;20446;-47
2023/12/12 06:34:43;;;;;;;8.80;4.30;;;;;;;;;;4966623;28;20954;-48
2023/12/12 06:37:10;;;;;;;7.17;4.60;;;;;;;;;;4963493;28;20442;-47
2023/12/12 06:39:37;;;;;;;6.13;4.50;;;;;;;;;;4963183;28;20510;-48
2023/12/12 06:42:04;;;;;;;9.50;5.17;;;;;;;;;;4959849;28;20442;-47
2023/12/12 06:44:30;;;;;;;7.70;4.87;;;;;;;;;;4961385;28;20447;-48
2023/12/12 06:46:56;;;;;;;7.90;4.87;;;;;;;;;;4963018;28;20713;-48
2023/12/12 06:49:22;;;;;;;7.53;4.63;;;;;;;;;;4961535;28;20203;-47
2023/12/12 06:51:48;;;;;;;6.10;4.43;;;;;;;;;;4961193;28;21094;-46
2023/12/12 06:54:13;;;;;;;6.63;4.63;;;;;;;;;;4961397;28;20449;-46
2023/12/12 06:56:41;;;;;;;7.53;4.30;;;;;;;;;;4962679;28;20735;-48
2023/12/12 06:59:07;;;;;;;5.87;4.13;;;;;;;;;;4961241;28;20234;-46
2023/12/12 07:01:33;;;;;;;5.80;4.40;;;;;;;;;;4962749;28;20574;-46
2023/12/12 07:03:59;;;;;;;6.93;4.80;;;;;;;;;;4962616;28;20199;-45
2023/12/12 07:06:25;;;;;;;5.87;4.57;;;;;;;;;;4962945;28;20665;-48
2023/12/12 07:08:51;;;;;;;4.70;4.07;;;;;;;;;;4960917;28;20209;-46
2023/12/12 07:11:17;;;;;;;7.80;5.20;;;;;;;;;;4961028;28;20234;-48
2023/12/12 07:13:45;;;;;;;7.03;5.00;;;;;;;;;;4962577;28;20472;-48
2023/12/12 07:16:11;;;;;;;9.43;5.63;;;;;;;;;;4961161;28;20210;-48
2023/12/12 07:18:38;;;;;;;9.27;4.63;;;;;;;;;;4959064;28;20482;-48
2023/12/12 07:21:04;;;;;;;10.00;5.43;;;;;;;;;;4962499;28;20470;-48
2023/12/12 07:23:30;;;;;;;7.70;5.60;;;;;;;;;;4963970;28;20458;-48
2023/12/12 07:25:56;;;;;;;6.87;5.50;;;;;;;;;;4960505;28;21292;-48
2023/12/12 07:28:23;;;;;;;8.27;5.63;;;;;;;;;;4960421;28;20480;-47
2023/12/12 07:30:50;;;;;;;12.33;6.10;;;;;;;;;;4961989;28;20427;-47
2023/12/12 07:33:16;;;;;;;8.43;6.13;;;;;;;;;;4962394;28;20454;-47
2023/12/12 07:35:42;;;;;;;9.90;6.53;;;;;;;;;;4960363;28;20538;-47
2023/12/12 07:38:08;;;;;;;8.83;6.27;;;;;;;;;;4960630;28;20477;-47
2023/12/12 07:40:34;;;;;;;10.07;7.20;;;;;;;;;;4960638;28;20814;-47
2023/12/12 07:43:00;;;;;;;8.83;6.60;;;;;;;;;;4960657;28;20203;-47
2023/12/12 07:45:26;;;;;;;11.80;6.70;;;;;;;;;;4960672;28;20191;-47
2023/12/12 07:47:53;;;;;;;8.70;6.13;;;;;;;;;;4960597;28;20199;-47
2023/12/12 07:50:20;;;;;;;10.50;5.97;;;;;;;;;;4958784;28;20670;-47
2023/12/12 07:52:47;;;;;;;8.77;5.90;;;;;;;;;;4962144;28;20449;-47
2023/12/12 07:55:13;;;;;;;7.67;5.87;;;;;;;;;;4960648;28;20445;-47
2023/12/12 07:57:39;;;;;;;16.20;8.43;;;;;;;;;;4962258;28;20457;-47
2023/12/12 08:00:06;;;;;;;12.10;7.47;;;;;;;;;;4958891;28;20501;-48
2023/12/12 08:02:32;;;;;;;11.07;7.87;;;;;;;;;;4960370;28;20526;-47
2023/12/12 08:04:59;;;;;;;12.77;8.13;;;;;;;;;;4959246;28;20805;-47
2023/12/12 08:07:25;;;;;;;13.37;8.70;;;;;;;;;;4960716;28;20439;-48
2023/12/12 08:09:51;;;;;;;10.83;8.20;;;;;;;;;;4963613;28;20774;-47
2023/12/12 08:12:17;;;;;;;11.10;7.53;;;;;;;;;;4964168;28;20213;-47
2023/12/12 08:14:43;;;;;;;14.37;8.37;;;;;;;;;;4966941;28;20863;-48
2023/12/12 08:17:09;;;;;;;9.33;6.10;;;;;;;;;;4967563;28;20457;-47
2023/12/12 08:19:35;;;;;;;8.67;6.47;;;;;;;;;;4965591;28;20965;-47
2023/12/12 08:22:03;;;;;;;8.87;7.00;;;;;;;;;;4963910;28;20226;-47
2023/12/12 08:24:29;;;;;;;9.03;5.93;;;;;;;;;;4965819;28;20222;-48
2023/12/12 08:26:55;;;;;;;10.60;7.73;;;;;;;;;;4965808;28;20491;-48
2023/12/12 08:29:21;;;;;;;13.23;9.23;;;;;;;;;;4965617;28;20241;-48
2023/12/12 08:31:47;;;;;;;11.90;8.57;;;;;;;;;;4967124;28;20708;-46
2023/12/12 08:34:13;;;;;;;11.90;7.57;;;;;;;;;;4965646;28;20438;-46
2023/12/12 08:36:40;;;;;;;10.73;6.67;;;;;;;;;;4967226;28;20719;-46
2023/12/12 08:39:07;;;;;;;10.27;6.90;;;;;;;;;;4965226;28;20485;-46
2023/12/12 08:41:33;;;;;;;9.50;6.43;;;;;;;;;;4966964;28;20445;-46
2023/12/12 08:43:59;;;;;;;8.07;5.90;;;;;;;;;;4965182;28;20446;-46
2023/12/12 08:46:28;;;;;;;9.90;7.07;;;;;;;;;;4963717;28;20480;-46
2023/12/12 08:48:55;;;;;;;8.10;6.27;;;;;;;;;;4963578;28;20195;-46
2023/12/12 08:51:21;;;;;;;8.93;6.90;;;;;;;;;;4965421;28;20952;-46
2023/12/12 08:53:47;;;;;;;11.30;8.30;;;;;;;;;;4966810;28;20203;-47
2023/12/12 08:56:16;;;;;;;13.40;8.50;;;;;;;;;;4967136;28;20237;-46
2023/12/12 08:58:41;;;;;;;15.10;8.40;;;;;;;;;;4965087;28;20298;-47
2023/12/12 09:01:08;;;;;;;11.73;8.50;;;;;;;;;;4963036;28;20610;-46
2023/12/12 09:03:34;;;;;;;13.17;7.70;;;;;;;;;;4965028;28;20190;-46
2023/12/12 09:06:00;;;;;;;10.40;8.23;;;;;;;;;;4961535;28;20229;-45
2023/12/12 09:08:26;;;;;;;11.30;7.90;;;;;;;;;;4965147;28;20254;-47
2023/12/12 09:10:52;;;;;;;11.77;8.17;;;;;;;;;;4966678;28;20339;-47
2023/12/12 09:13:19;;;;;;;14.27;9.27;;;;;;;;;;4963134;28;20665;-46
2023/12/12 09:15:45;;;;;;;13.97;9.57;;;;;;;;;;4964684;28;20207;-47
2023/12/12 09:18:11;;;;;;;12.00;9.40;;;;;;;;;;4963089;28;20223;-46
2023/12/12 09:20:37;;;;;;;13.97;8.73;;;;;;;;;;4964598;28;20228;-46
2023/12/12 09:23:04;;;;;;;14.77;9.50;;;;;;;;;;4974622;28;20225;-47
2023/12/12 09:25:30;;;;;;;14.30;9.03;;;;;;;;;;4974515;28;20203;-46
2023/12/12 09:27:56;;;;;;;14.53;8.83;;;;;;;;;;4974306;28;20318;-47
2023/12/12 09:30:23;;;;;;;10.87;8.80;;;;;;;;;;4971158;28;20203;-46
2023/12/12 09:32:49;;;;;;;14.27;9.50;;;;;;;;;;4974525;28;20214;-45
2023/12/12 09:35:16;;;;;;;12.67;8.67;;;;;;;;;;4974432;28;20203;-43
2023/12/12 09:37:42;;;;;;;14.23;9.77;;;;;;;;;;4974530;28;20256;-44
2023/12/12 09:40:12;;;;;;;12.50;9.57;;;;;;;;;;4974681;28;20207;-46
2023/12/12 09:42:40;;;;;;;12.73;8.73;;;;;;;;;;4974510;28;20229;-46
2023/12/12 09:45:13;;;;;;;13.97;10.07;;;;;;;;;;4974294;28;20206;-46
2023/12/12 09:47:42;;;;;;;13.67;9.10;;;;;;;;;;4974666;28;20207;-45
2023/12/12 09:50:10;;;;;;;11.23;9.03;;;;;;;;;;4974560;28;20257;-45
2023/12/12 09:52:36;;;;;;;13.93;9.50;;;;;;;;;;4974242;28;20210;-45
2023/12/12 09:55:03;;;;;;;13.10;10.13;;;;;;;;;;4974099;28;20199;-45
2023/12/12 09:57:30;;;;;;;15.73;10.43;;;;;;;;;;4972420;28;20218;-45
2023/12/12 09:59:56;;;;;;;21.13;10.87;;;;;;;;;;4970645;28;20231;-45
2023/12/12 10:02:23;;;;;;;19.47;10.40;;;;;;;;;;4972470;28;20253;-45
2023/12/12 10:04:52;;;;;;;18.13;11.83;;;;;;;;;;4972263;28;20281;-45
2023/12/12 10:07:19;;;;;;;18.90;11.57;;;;;;;;;;4967339;28;20203;-45
2023/12/12 10:09:46;;;;;;;22.37;11.97;;;;;;;;;;4967371;28;20199;-45
2023/12/12 10:12:12;;;;;;;20.70;11.87;;;;;;;;;;4970516;28;20222;-45
2023/12/12 10:14:39;;;;;;;21.97;12.97;;;;;;;;;;4965832;28;20290;-45
2023/12/12 10:17:05;;;;;;;21.73;12.47;;;;;;;;;;4970081;28;20677;-46
2023/12/12 10:19:32;;;;;;;19.63;12.43;;;;;;;;;;4965119;28;20253;-45
2023/12/12 10:22:01;;;;;;;23.80;13.53;;;;;;;;;;4968418;28;20223;-46
2023/12/12 10:24:27;;;;;;;22.57;14.00;;;;;;;;;;4965270;28;20206;-45
2023/12/12 10:26:53;;;;;;;23.33;15.13;;;;;;;;;;4973143;28;20278;-45
2023/12/12 10:29:20;;;;;;;31.23;16.47;;;;;;;;;;4969810;28;20563;-45
2023/12/12 10:31:46;;;;;;;25.47;15.50;;;;;;;;;;4965923;28;20211;-45
2023/12/12 10:34:12;;;;;;;24.40;15.53;;;;;;;;;;4970120;28;20451;-45
2023/12/12 10:36:42;;;;;;;22.40;14.67;;;;;;;;;;4963182;28;20211;-45
2023/12/12 10:39:12;;;;;;;25.37;16.67;;;;;;;;;;4968022;28;20693;-45
2023/12/12 10:41:39;;;;;;;22.67;14.67;;;;;;;;;;4964986;28;20209;-45
2023/12/12 10:44:08;;;;;;;28.30;16.53;;;;;;;;;;4966340;28;20199;-45
2023/12/12 10:46:37;;;;;;;26.53;17.17;;;;;;;;;;4966498;28;20207;-45
2023/12/12 10:49:03;;;;;;;29.50;16.57;;;;;;;;;;4965044;28;20582;-45
2023/12/12 10:51:29;;;;;;;28.77;16.80;;;;;;;;;;4968050;28;20203;-45
2023/12/12 10:53:55;;;;;;;31.73;17.37;;;;;;;;;;4964576;28;20658;-45
2023/12/12 10:56:23;;;;;;;26.50;17.00;;;;;;;;;;4967850;28;20573;-45
2023/12/12 10:58:49;;;;;;;25.07;16.00;;;;;;;;;;4966028;28;20231;-45
2023/12/12 11:01:16;;;;;;;29.03;18.10;;;;;;;;;;4961146;28;20213;-45
2023/12/12 11:03:42;;;;;;;25.10;16.90;;;;;;;;;;4966336;28;20192;-45
2023/12/12 11:06:09;;;;;;;26.30;17.37;;;;;;;;;;4962749;28;20199;-45
2023/12/12 11:08:35;;;;;;;25.67;17.73;;;;;;;;;;4967470;28;20191;-45
2023/12/12 11:11:02;;;;;;;23.73;15.60;;;;;;;;;;4964083;28;20207;-45
2023/12/12 11:13:31;;;;;;;19.07;14.50;;;;;;;;;;4964500;28;20620;-45
2023/12/12 11:15:58;;;;;;;16.63;12.17;;;;;;;;;;4966464;28;20214;-45
2023/12/12 11:18:24;;;;;;;16.60;11.40;;;;;;;;;;4966177;28;20226;-45
2023/12/12 11:20:50;;;;;;;13.97;11.23;;;;;;;;;;4962678;28;20206;-45
2023/12/12 11:23:30;;;;;;;14.53;10.90;;;;;;;;;;4961233;28;20223;-46
2023/12/12 11:25:57;;;;;;;15.87;10.57;;;;;;;;;;4962618;28;20214;-45
2023/12/12 11:28:23;;;;;;;13.97;11.13;;;;;;;;;;4964311;28;20238;-45
2023/12/12 11:30:50;;;;;;;13.30;9.90;;;;;;;;;;4964341;28;20213;-46
2023/12/12 11:33:16;;;;;;;14.03;10.07;;;;;;;;;;4966134;28;20205;-46
2023/12/12 11:35:42;;;;;;;17.60;12.00;;;;;;;;;;4966073;28;20203;-45
2023/12/12 11:38:27;;;;;;;13.50;10.67;;;;;;;;;;4969289;28;20254;-46
2023/12/12 11:41:09;;;;;;;15.07;11.83;;;;;;;;;;4965984;28;20205;-46
2023/12/12 11:43:36;;;;;;;19.87;11.83;;;;;;;;;;4971873;28;20257;-46
2023/12/12 11:46:14;;;;;;;17.73;12.23;;;;;;;;;;4968157;28;20245;-46
2023/12/12 11:48:40;;;;;;;18.70;11.67;;;;;;;;;;4968473;28;20286;-46
2023/12/12 11:51:21;;;;;;;16.43;11.67;;;;;;;;;;4969320;28;20721;-46
2023/12/12 11:53:47;;;;;;;14.93;11.77;;;;;;;;;;4969697;28;20369;-46
2023/12/12 11:56:16;;;;;;;14.37;10.00;;;;;;;;;;4967659;28;20234;-46
2023/12/12 11:58:42;;;;;;;18.70;10.73;;;;;;;;;;4966157;28;20583;-46
2023/12/12 12:01:09;;;;;;;15.03;10.50;;;;;;;;;;4968083;28;20203;-46
2023/12/12 12:03:35;;;;;;;14.67;9.90;;;;;;;;;;4968230;28;20199;-46
2023/12/12 12:06:01;;;;;;;15.40;10.10;;;;;;;;;;4966127;28;20253;-46
2023/12/12 12:08:27;;;;;;;13.90;9.00;;;;;;;;;;4964637;28;20203;-46
2023/12/12 12:10:57;;;;;;;18.10;10.17;;;;;;;;;;4966278;28;20286;-46
2023/12/12 12:13:23;;;;;;;12.97;10.13;;;;;;;;;;4965985;28;20289;-46
2023/12/12 12:15:50;;;;;;;15.13;10.80;;;;;;;;;;4964557;28;20285;-46
2023/12/12 12:18:27;;;;;;;15.40;11.23;;;;;;;;;;4966034;28;20294;-46
2023/12/12 12:20:53;;;;;;;16.20;9.60;;;;;;;;;;4964085;28;20217;-46
2023/12/12 12:23:19;;;;;;;15.33;10.40;;;;;;;;;;4969379;28;20242;-46
2023/12/12 12:25:45;;;;;;;12.53;8.80;;;;;;;;;;4965719;28;20234;-46
2023/12/12 12:28:11;;;;;;;14.83;10.30;;;;;;;;;;4963991;28;20239;-46
2023/12/12 12:30:44;;;;;;;15.90;11.30;;;;;;;;;;4967323;28;20195;-45
2023/12/12 12:33:11;;;;;;;14.03;10.53;;;;;;;;;;4965852;28;20677;-45
2023/12/12 12:35:49;;;;;;;19.87;12.10;;;;;;;;;;4964203;28;20577;-45
2023/12/12 12:38:25;;;;;;;16.07;11.80;;;;;;;;;;4962250;28;20685;-45
2023/12/12 12:40:51;;;;;;;15.20;10.80;;;;;;;;;;4963792;28;20201;-46
2023/12/12 12:43:18;;;;;;;12.53;9.67;;;;;;;;;;4969169;28;20199;-46
2023/12/12 12:45:45;;;;;;;15.53;9.97;;;;;;;;;;4965510;28;20650;-46
2023/12/12 12:48:11;;;;;;;19.23;10.93;;;;;;;;;;4965439;28;20207;-46
2023/12/12 12:50:41;;;;;;;15.33;10.57;;;;;;;;;;4965350;28;20207;-46
2023/12/12 12:53:07;;;;;;;16.17;10.37;;;;;;;;;;4966751;28;20207;-46
2023/12/12 12:55:33;;;;;;;16.23;11.10;;;;;;;;;;4963200;28;20756;-46
2023/12/12 12:57:59;;;;;;;16.30;10.77;;;;;;;;;;4966748;28;20286;-46
2023/12/12 13:00:26;;;;;;;19.60;11.47;;;;;;;;;;4960414;28;20583;-45
2023/12/12 13:02:52;;;;;;;20.13;11.53;;;;;;;;;;4963339;28;20195;-45
2023/12/12 13:05:18;;;;;;;21.80;12.17;;;;;;;;;;4965131;28;20384;-45
2023/12/12 13:07:46;;;;;;;16.23;11.30;;;;;;;;;;4964934;28;20211;-45
2023/12/12 13:10:14;;;;;;;18.07;11.70;;;;;;;;;;4961687;28;21277;-45
2023/12/12 13:12:41;;;;;;;22.93;11.43;;;;;;;;;;4962828;28;20222;-45
2023/12/12 13:15:07;;;;;;;20.47;11.27;;;;;;;;;;4972190;28;20213;-45
2023/12/12 13:17:33;;;;;;;18.20;11.37;;;;;;;;;;4974725;28;20206;-46
2023/12/12 13:20:00;;;;;;;19.90;12.73;;;;;;;;;;4974474;28;20234;-46
2023/12/12 13:22:26;;;;;;;17.80;11.90;;;;;;;;;;4974695;28;20302;-46
2023/12/12 13:24:54;;;;;;;21.87;13.80;;;;;;;;;;4974576;28;20634;-46
2023/12/12 13:27:20;;;;;;;20.00;12.23;;;;;;;;;;4974261;28;20713;-46
2023/12/12 13:29:46;;;;;;;16.13;11.77;;;;;;;;;;4974254;28;20218;-45
2023/12/12 13:32:12;;;;;;;19.33;13.13;;;;;;;;;;4974457;28;20557;-46
2023/12/12 13:34:38;;;;;;;18.57;13.17;;;;;;;;;;4974615;28;20298;-46
2023/12/12 13:37:04;;;;;;;19.60;12.50;;;;;;;;;;4974054;28;20278;-45
2023/12/12 13:39:30;;;;;;;19.33;12.80;;;;;;;;;;4974364;28;20262;-46
2023/12/12 13:41:58;;;;;;;19.50;12.77;;;;;;;;;;4974344;28;20219;-46
2023/12/12 13:44:24;;;;;;;19.23;12.80;;;;;;;;;;4974496;28;20203;-45
2023/12/12 13:46:50;;;;;;;19.53;11.83;;;;;;;;;;4974093;28;20201;-45
2023/12/12 13:49:16;;;;;;;15.50;12.13;;;;;;;;;;4991110;28;20570;-45
2023/12/12 13:51:42;;;;;;;19.33;12.30;;;;;;;;;;4993847;28;20241;-45
2023/12/12 13:54:08;;;;;;;17.83;11.83;;;;;;;;;;4993176;28;20293;-45
2023/12/12 13:56:34;;;;;;;18.20;11.73;;;;;;;;;;4993515;28;20276;-46
2023/12/12 13:59:01;;;;;;;16.27;11.43;;;;;;;;;;4985679;28;20242;-45
2023/12/12 14:01:27;;;;;;;19.87;11.60;;;;;;;;;;4973804;28;20199;-46
2023/12/12 14:03:53;;;;;;;18.67;11.07;;;;;;;;;;4973804;28;20289;-45
2023/12/12 14:06:20;;;;;;;17.23;12.03;;;;;;;;;;4972829;28;20199;-45
2023/12/12 14:08:46;;;;;;;18.53;11.57;;;;;;;;;;4973839;28;20225;-46
2023/12/12 14:11:12;;;;;;;22.73;11.53;;;;;;;;;;4962311;28;20227;-46
2023/12/12 14:13:38;;;;;;;15.40;11.03;;;;;;;;;;4958966;28;20234;-49
2023/12/12 14:16:07;;;;;;;16.53;10.57;;;;;;;;;;4971363;28;20827;-45
2023/12/12 14:18:33;;;;;;;16.30;10.33;;;;;;;;;;4971587;28;20480;-45
2023/12/12 14:20:59;;;;;;;17.23;10.00;;;;;;;;;;4973529;28;20203;-45
2023/12/12 14:23:25;;;;;;;19.47;10.40;;;;;;;;;;4974046;28;20587;-45
2023/12/12 14:25:51;;;;;;;15.17;9.77;;;;;;;;;;4973735;28;20191;-45
2023/12/12 14:28:17;;;;;;;14.80;9.33;;;;;;;;;;4973295;28;20242;-45
2023/12/12 14:30:44;;;;;;;17.13;10.93;;;;;;;;;;4973837;28;20198;-45